sensor_id;sensor_type;location;lat;lon;timestamp;temperature;humidity
8412;HTU21D;4243;49.296;11.348;2022-07-29T00:00:14;20.50;1.00
8412;HTU21D;4243;49.296;11.348;2022-07-29T00:00:15;20.41;118.99
8412;HTU21D;4243;49.296;11.348;2022-07-29T00:02:42;20.40;118.99
8412;HTU21D;4243;49.296;11.348;2022-07-29T00:05:09;20.45;118.99
8412;HTU21D;4243;49.296;11.348;2022-07-29T00:05:09;20.50;1.00
8412;HTU21D;4243;49.296;11.348;2022-07-29T00:07:40;20.41;118.99
8412;HTU21D;4243;49.296;11.348;2022-07-29T00:07:40;20.50;1.00
8412;HTU21D;4243;49.296;11.348;2022-07-29T00:10:07;20.50;1.00
8412;HTU21D;4243;49.296;11.348;2022-07-29T00:10:08;20.41;118.99
8412;HTU21D;4243;49.296;11.348;2022-07-29T00:12:35;20.43;118.99
8412;HTU21D;4243;49.296;11.348;2022-07-29T00:15:04;20.40;118.99
8412;HTU21D;4243;49.296;11.348;2022-07-29T00:15:04;20.40;1.00
8412;HTU21D;4243;49.296;11.348;2022-07-29T00:17:32;20.41;118.99
8412;HTU21D;4243;49.296;11.348;2022-07-29T00:20:01;20.43;118.99
8412;HTU21D;4243;49.296;11.348;2022-07-29T00:22:28;20.40;118.99
8412;HTU21D;4243;49.296;11.348;2022-07-29T00:24:56;20.44;118.99
8412;HTU21D;4243;49.296;11.348;2022-07-29T00:27:23;20.54;118.99
8412;HTU21D;4243;49.296;11.348;2022-07-29T00:29:51;20.50;118.99
8412;HTU21D;4243;49.296;11.348;2022-07-29T00:32:18;20.53;118.99
8412;HTU21D;4243;49.296;11.348;2022-07-29T00:34:46;20.51;118.99
8412;HTU21D;4243;49.296;11.348;2022-07-29T00:37:32;20.44;118.99
8412;HTU21D;4243;49.296;11.348;2022-07-29T00:39:59;20.41;118.99
8412;HTU21D;4243;49.296;11.348;2022-07-29T00:42:27;20.35;118.99
8412;HTU21D;4243;49.296;11.348;2022-07-29T00:44:55;20.33;118.99
8412;HTU21D;4243;49.296;11.348;2022-07-29T00:47:22;20.35;118.99
8412;HTU21D;4243;49.296;11.348;2022-07-29T00:49:50;20.32;118.99
8412;HTU21D;4243;49.296;11.348;2022-07-29T00:52:17;20.24;118.99
8412;HTU21D;4243;49.296;11.348;2022-07-29T00:54:45;20.19;118.99
8412;HTU21D;4243;49.296;11.348;2022-07-29T00:57:12;20.16;118.99
8412;HTU21D;4243;49.296;11.348;2022-07-29T00:59:40;20.17;118.99
8412;HTU21D;4243;49.296;11.348;2022-07-29T01:02:07;20.10;1.00
8412;HTU21D;4243;49.296;11.348;2022-07-29T01:02:07;20.14;118.99
8412;HTU21D;4243;49.296;11.348;2022-07-29T01:04:35;20.11;118.99
8412;HTU21D;4243;49.296;11.348;2022-07-29T01:07:03;20.14;118.99
8412;HTU21D;4243;49.296;11.348;2022-07-29T01:09:35;20.15;118.99
8412;HTU21D;4243;49.296;11.348;2022-07-29T01:12:21;20.00;1.00
8412;HTU21D;4243;49.296;11.348;2022-07-29T01:12:23;20.12;118.99
8412;HTU21D;4243;49.296;11.348;2022-07-29T01:14:52;19.90;1.00
8412;HTU21D;4243;49.296;11.348;2022-07-29T01:14:53;20.04;118.99
8412;HTU21D;4243;49.296;11.348;2022-07-29T01:17:24;19.99;118.99
8412;HTU21D;4243;49.296;11.348;2022-07-29T01:26:04;19.70;1.00
8412;HTU21D;4243;49.296;11.348;2022-07-29T01:32:15;19.50;1.00
8412;HTU21D;4243;49.296;11.348;2022-07-29T01:32:18;19.68;118.99
8412;HTU21D;4243;49.296;11.348;2022-07-29T01:35:02;19.63;118.99
8412;HTU21D;4243;49.296;11.348;2022-07-29T01:37:57;19.62;118.99
8412;HTU21D;4243;49.296;11.348;2022-07-29T01:40:46;19.40;1.00
8412;HTU21D;4243;49.296;11.348;2022-07-29T01:40:49;19.57;118.99
8412;HTU21D;4243;49.296;11.348;2022-07-29T01:43:27;19.55;118.99
8412;HTU21D;4243;49.296;11.348;2022-07-29T01:46:03;19.60;118.99
8412;HTU21D;4243;49.296;11.348;2022-07-29T01:48:43;19.61;118.99
8412;HTU21D;4243;49.296;11.348;2022-07-29T01:51:25;19.54;118.99
8412;HTU21D;4243;49.296;11.348;2022-07-29T01:57:15;19.50;118.99
8412;HTU21D;4243;49.296;11.348;2022-07-29T01:59:49;19.45;118.99
8412;HTU21D;4243;49.296;11.348;2022-07-29T02:02:18;19.45;118.99
8412;HTU21D;4243;49.296;11.348;2022-07-29T02:04:47;19.10;1.00
8412;HTU21D;4243;49.296;11.348;2022-07-29T02:04:49;19.33;118.99
8412;HTU21D;4243;49.296;11.348;2022-07-29T02:07:21;19.30;118.99
8412;HTU21D;4243;49.296;11.348;2022-07-29T02:09:50;19.00;1.00
8412;HTU21D;4243;49.296;11.348;2022-07-29T02:09:51;19.26;118.99
8412;HTU21D;4243;49.296;11.348;2022-07-29T02:12:20;19.18;118.99
8412;HTU21D;4243;49.296;11.348;2022-07-29T02:14:51;19.18;118.99
8412;HTU21D;4243;49.296;11.348;2022-07-29T02:17:25;18.80;1.00
8412;HTU21D;4243;49.296;11.348;2022-07-29T02:17:27;19.15;118.99
8412;HTU21D;4243;49.296;11.348;2022-07-29T02:20:02;19.10;118.99
8412;HTU21D;4243;49.296;11.348;2022-07-29T02:22:33;18.70;1.00
8412;HTU21D;4243;49.296;11.348;2022-07-29T02:22:35;19.08;118.99
8412;HTU21D;4243;49.296;11.348;2022-07-29T02:25:06;19.02;118.99
8412;HTU21D;4243;49.296;11.348;2022-07-29T02:27:40;18.80;1.00
8412;HTU21D;4243;49.296;11.348;2022-07-29T02:27:41;19.03;118.99
8412;HTU21D;4243;49.296;11.348;2022-07-29T02:30:10;19.03;118.99
8412;HTU21D;4243;49.296;11.348;2022-07-29T02:32:41;19.05;118.99
8412;HTU21D;4243;49.296;11.348;2022-07-29T02:35:09;18.70;1.00
8412;HTU21D;4243;49.296;11.348;2022-07-29T02:35:10;18.95;118.99
8412;HTU21D;4243;49.296;11.348;2022-07-29T02:37:42;18.92;118.99
8412;HTU21D;4243;49.296;11.348;2022-07-29T02:40:14;18.60;1.00
8412;HTU21D;4243;49.296;11.348;2022-07-29T02:40:15;18.92;118.99
8412;HTU21D;4243;49.296;11.348;2022-07-29T02:42:44;18.88;118.99
8412;HTU21D;4243;49.296;11.348;2022-07-29T02:45:13;18.84;118.99
8412;HTU21D;4243;49.296;11.348;2022-07-29T02:47:43;18.70;1.00
8412;HTU21D;4243;49.296;11.348;2022-07-29T02:47:47;18.86;118.99
8412;HTU21D;4243;49.296;11.348;2022-07-29T02:50:20;18.60;1.00
8412;HTU21D;4243;49.296;11.348;2022-07-29T02:50:26;18.91;118.99
8412;HTU21D;4243;49.296;11.348;2022-07-29T02:53:22;18.86;118.99
8412;HTU21D;4243;49.296;11.348;2022-07-29T02:55:59;18.60;1.00
8412;HTU21D;4243;49.296;11.348;2022-07-29T02:56:01;18.82;118.99
8412;HTU21D;4243;49.296;11.348;2022-07-29T02:58:44;18.82;118.99
8412;HTU21D;4243;49.296;11.348;2022-07-29T03:01:16;18.81;118.99
8412;HTU21D;4243;49.296;11.348;2022-07-29T03:03:50;18.60;1.00
8412;HTU21D;4243;49.296;11.348;2022-07-29T03:03:52;18.82;118.99
8412;HTU21D;4243;49.296;11.348;2022-07-29T03:06:22;18.50;1.00
8412;HTU21D;4243;49.296;11.348;2022-07-29T03:06:23;18.81;118.99
8412;HTU21D;4243;49.296;11.348;2022-07-29T03:09:03;18.76;118.99
8412;HTU21D;4243;49.296;11.348;2022-07-29T03:11:39;18.81;118.99
8412;HTU21D;4243;49.296;11.348;2022-07-29T03:14:18;18.86;118.99
8412;HTU21D;4243;49.296;11.348;2022-07-29T03:16:48;18.96;118.99
8412;HTU21D;4243;49.296;11.348;2022-07-29T03:19:17;19.03;118.99
8412;HTU21D;4243;49.296;11.348;2022-07-29T03:21:45;19.05;118.99
8412;HTU21D;4243;49.296;11.348;2022-07-29T03:24:31;19.01;118.99
8412;HTU21D;4243;49.296;11.348;2022-07-29T03:27:00;19.00;1.00
8412;HTU21D;4243;49.296;11.348;2022-07-29T03:27:00;18.99;118.99
8412;HTU21D;4243;49.296;11.348;2022-07-29T03:29:28;18.97;118.99
8412;HTU21D;4243;49.296;11.348;2022-07-29T03:32:04;18.99;118.99
8412;HTU21D;4243;49.296;11.348;2022-07-29T03:34:36;19.03;118.99
8412;HTU21D;4243;49.296;11.348;2022-07-29T03:37:05;18.99;118.99
8412;HTU21D;4243;49.296;11.348;2022-07-29T03:37:05;19.00;1.00
8412;HTU21D;4243;49.296;11.348;2022-07-29T03:39:38;19.07;118.99
8412;HTU21D;4243;49.296;11.348;2022-07-29T03:42:10;19.10;118.99
8412;HTU21D;4243;49.296;11.348;2022-07-29T03:44:41;19.20;1.00
8412;HTU21D;4243;49.296;11.348;2022-07-29T03:44:43;19.22;118.99
8412;HTU21D;4243;49.296;11.348;2022-07-29T03:47:13;19.22;118.99
8412;HTU21D;4243;49.296;11.348;2022-07-29T03:49:42;19.10;1.00
8412;HTU21D;4243;49.296;11.348;2022-07-29T03:49:44;19.25;118.99
8412;HTU21D;4243;49.296;11.348;2022-07-29T03:52:14;19.21;118.99
8412;HTU21D;4243;49.296;11.348;2022-07-29T03:54:42;19.18;118.99
8412;HTU21D;4243;49.296;11.348;2022-07-29T03:57:11;19.14;118.99
8412;HTU21D;4243;49.296;11.348;2022-07-29T03:59:39;19.09;118.99
8412;HTU21D;4243;49.296;11.348;2022-07-29T04:02:09;19.00;1.00
8412;HTU21D;4243;49.296;11.348;2022-07-29T04:02:11;19.13;118.99
8412;HTU21D;4243;49.296;11.348;2022-07-29T04:04:38;19.00;1.00
8412;HTU21D;4243;49.296;11.348;2022-07-29T04:04:38;19.11;118.99
8412;HTU21D;4243;49.296;11.348;2022-07-29T04:07:06;19.08;118.99
8412;HTU21D;4243;49.296;11.348;2022-07-29T04:09:33;19.08;118.99
8412;HTU21D;4243;49.296;11.348;2022-07-29T04:12:00;19.07;118.99
8412;HTU21D;4243;49.296;11.348;2022-07-29T04:12:00;18.90;1.00
8412;HTU21D;4243;49.296;11.348;2022-07-29T04:14:35;19.10;118.99
8412;HTU21D;4243;49.296;11.348;2022-07-29T04:17:03;18.90;1.00
8412;HTU21D;4243;49.296;11.348;2022-07-29T04:17:04;19.09;118.99
8412;HTU21D;4243;49.296;11.348;2022-07-29T04:19:31;18.90;1.00
8412;HTU21D;4243;49.296;11.348;2022-07-29T04:19:32;19.11;118.99
8412;HTU21D;4243;49.296;11.348;2022-07-29T04:22:00;19.11;118.99
8412;HTU21D;4243;49.296;11.348;2022-07-29T04:24:28;19.10;118.99
8412;HTU21D;4243;49.296;11.348;2022-07-29T04:26:56;19.11;118.99
8412;HTU21D;4243;49.296;11.348;2022-07-29T04:29:23;19.11;118.99
8412;HTU21D;4243;49.296;11.348;2022-07-29T04:31:50;19.02;118.99
8412;HTU21D;4243;49.296;11.348;2022-07-29T04:34:18;19.02;118.99
8412;HTU21D;4243;49.296;11.348;2022-07-29T04:36:46;19.02;118.99
8412;HTU21D;4243;49.296;11.348;2022-07-29T04:39:13;19.00;118.99
8412;HTU21D;4243;49.296;11.348;2022-07-29T04:39:13;18.70;1.00
8412;HTU21D;4243;49.296;11.348;2022-07-29T04:41:48;18.98;118.99
8412;HTU21D;4243;49.296;11.348;2022-07-29T04:41:48;18.70;1.00
8412;HTU21D;4243;49.296;11.348;2022-07-29T04:44:18;18.70;1.00
8412;HTU21D;4243;49.296;11.348;2022-07-29T04:44:18;19.00;118.99
8412;HTU21D;4243;49.296;11.348;2022-07-29T04:46:46;18.96;118.99
8412;HTU21D;4243;49.296;11.348;2022-07-29T04:49:14;18.99;118.99
8412;HTU21D;4243;49.296;11.348;2022-07-29T04:51:41;18.95;118.99
8412;HTU21D;4243;49.296;11.348;2022-07-29T04:54:09;18.96;118.99
8412;HTU21D;4243;49.296;11.348;2022-07-29T04:56:36;18.94;118.99
8412;HTU21D;4243;49.296;11.348;2022-07-29T04:59:04;18.91;118.99
8412;HTU21D;4243;49.296;11.348;2022-07-29T05:01:31;18.83;118.99
8412;HTU21D;4243;49.296;11.348;2022-07-29T05:03:58;18.78;118.99
8412;HTU21D;4243;49.296;11.348;2022-07-29T05:03:58;18.60;1.00
8412;HTU21D;4243;49.296;11.348;2022-07-29T05:06:27;18.70;118.99
8412;HTU21D;4243;49.296;11.348;2022-07-29T05:08:54;18.68;118.99
8412;HTU21D;4243;49.296;11.348;2022-07-29T05:11:22;18.56;118.99
8412;HTU21D;4243;49.296;11.348;2022-07-29T05:13:56;18.42;118.99
8412;HTU21D;4243;49.296;11.348;2022-07-29T05:16:23;18.32;118.99
8412;HTU21D;4243;49.296;11.348;2022-07-29T05:18:51;18.20;118.99
8412;HTU21D;4243;49.296;11.348;2022-07-29T05:21:18;18.15;118.99
8412;HTU21D;4243;49.296;11.348;2022-07-29T05:23:46;18.10;118.99
8412;HTU21D;4243;49.296;11.348;2022-07-29T05:26:13;18.10;118.99
8412;HTU21D;4243;49.296;11.348;2022-07-29T05:28:41;18.08;118.99
8412;HTU21D;4243;49.296;11.348;2022-07-29T05:31:08;18.10;118.99
8412;HTU21D;4243;49.296;11.348;2022-07-29T05:33:36;18.12;118.99
8412;HTU21D;4243;49.296;11.348;2022-07-29T05:36:04;18.17;118.99
8412;HTU21D;4243;49.296;11.348;2022-07-29T05:38:34;18.19;118.99
8412;HTU21D;4243;49.296;11.348;2022-07-29T05:41:03;18.34;118.99
8412;HTU21D;4243;49.296;11.348;2022-07-29T05:43:31;18.40;1.00
8412;HTU21D;4243;49.296;11.348;2022-07-29T05:43:32;18.48;118.99
8412;HTU21D;4243;49.296;11.348;2022-07-29T05:45:59;18.59;118.99
8412;HTU21D;4243;49.296;11.348;2022-07-29T05:48:27;18.80;1.00
8412;HTU21D;4243;49.296;11.348;2022-07-29T05:48:27;18.76;118.99
8412;HTU21D;4243;49.296;11.348;2022-07-29T05:50:54;18.97;118.99
8412;HTU21D;4243;49.296;11.348;2022-07-29T05:53:22;19.26;118.99
8412;HTU21D;4243;49.296;11.348;2022-07-29T05:55:50;19.46;118.99
8412;HTU21D;4243;49.296;11.348;2022-07-29T05:58:18;19.67;118.99
8412;HTU21D;4243;49.296;11.348;2022-07-29T05:58:18;19.70;1.00
8412;HTU21D;4243;49.296;11.348;2022-07-29T06:00:46;19.84;118.99
8412;HTU21D;4243;49.296;11.348;2022-07-29T06:03:13;20.00;118.99
8412;HTU21D;4243;49.296;11.348;2022-07-29T06:05:41;20.22;118.99
8412;HTU21D;4243;49.296;11.348;2022-07-29T06:08:08;20.45;118.99
8412;HTU21D;4243;49.296;11.348;2022-07-29T06:10:36;20.68;118.99
8412;HTU21D;4243;49.296;11.348;2022-07-29T06:13:04;20.85;118.99
8412;HTU21D;4243;49.296;11.348;2022-07-29T06:15:31;21.08;118.99
8412;HTU21D;4243;49.296;11.348;2022-07-29T06:17:59;21.31;118.99
8412;HTU21D;4243;49.296;11.348;2022-07-29T06:20:31;21.58;118.99
8412;HTU21D;4243;49.296;11.348;2022-07-29T06:22:59;21.88;118.99
8412;HTU21D;4243;49.296;11.348;2022-07-29T06:25:28;22.18;118.99
8412;HTU21D;4243;49.296;11.348;2022-07-29T06:27:59;22.47;118.99
8412;HTU21D;4243;49.296;11.348;2022-07-29T06:30:26;22.68;118.99
8412;HTU21D;4243;49.296;11.348;2022-07-29T06:32:55;22.87;118.99
8412;HTU21D;4243;49.296;11.348;2022-07-29T06:35:22;23.10;118.99
8412;HTU21D;4243;49.296;11.348;2022-07-29T06:35:22;21.70;1.00
8412;HTU21D;4243;49.296;11.348;2022-07-29T06:38:08;23.20;118.99
8412;HTU21D;4243;49.296;11.348;2022-07-29T06:40:56;21.70;1.00
8412;HTU21D;4243;49.296;11.348;2022-07-29T06:40:56;23.14;118.99
8412;HTU21D;4243;49.296;11.348;2022-07-29T06:43:36;23.14;118.99
8412;HTU21D;4243;49.296;11.348;2022-07-29T06:46:17;21.60;1.00
8412;HTU21D;4243;49.296;11.348;2022-07-29T06:46:18;23.09;118.99
8412;HTU21D;4243;49.296;11.348;2022-07-29T06:48:46;23.13;118.99
8412;HTU21D;4243;49.296;11.348;2022-07-29T06:51:17;21.60;1.00
8412;HTU21D;4243;49.296;11.348;2022-07-29T06:51:17;23.21;118.99
8412;HTU21D;4243;49.296;11.348;2022-07-29T06:53:51;23.17;118.99
8412;HTU21D;4243;49.296;11.348;2022-07-29T06:56:30;23.11;118.99
8412;HTU21D;4243;49.296;11.348;2022-07-29T06:59:07;23.02;118.99
8412;HTU21D;4243;49.296;11.348;2022-07-29T07:01:36;22.90;118.99
8412;HTU21D;4243;49.296;11.348;2022-07-29T07:04:05;22.88;118.99
8412;HTU21D;4243;49.296;11.348;2022-07-29T07:06:32;22.82;118.99
8412;HTU21D;4243;49.296;11.348;2022-07-29T07:09:00;22.72;118.99
8412;HTU21D;4243;49.296;11.348;2022-07-29T07:11:28;22.79;118.99
8412;HTU21D;4243;49.296;11.348;2022-07-29T07:13:56;22.85;118.99
8412;HTU21D;4243;49.296;11.348;2022-07-29T07:16:29;22.88;118.99
8412;HTU21D;4243;49.296;11.348;2022-07-29T07:18:58;22.94;118.99
8412;HTU21D;4243;49.296;11.348;2022-07-29T07:21:25;23.07;118.99
8412;HTU21D;4243;49.296;11.348;2022-07-29T07:23:56;23.18;118.99
8412;HTU21D;4243;49.296;11.348;2022-07-29T07:26:24;23.35;118.99
8412;HTU21D;4243;49.296;11.348;2022-07-29T07:28:52;23.45;118.99
8412;HTU21D;4243;49.296;11.348;2022-07-29T07:31:20;23.60;118.99
8412;HTU21D;4243;49.296;11.348;2022-07-29T07:33:47;23.83;118.99
8412;HTU21D;4243;49.296;11.348;2022-07-29T07:36:15;24.04;118.99
8412;HTU21D;4243;49.296;11.348;2022-07-29T07:38:42;24.32;118.99
8412;HTU21D;4243;49.296;11.348;2022-07-29T07:41:10;24.70;118.99
8412;HTU21D;4243;49.296;11.348;2022-07-29T07:43:38;24.92;118.99
8412;HTU21D;4243;49.296;11.348;2022-07-29T07:46:05;25.53;118.99
8412;HTU21D;4243;49.296;11.348;2022-07-29T07:46:05;23.10;1.00
8412;HTU21D;4243;49.296;11.348;2022-07-29T07:48:32;25.90;118.99
8412;HTU21D;4243;49.296;11.348;2022-07-29T07:48:32;23.30;1.00
8412;HTU21D;4243;49.296;11.348;2022-07-29T07:51:01;26.68;118.99
8412;HTU21D;4243;49.296;11.348;2022-07-29T07:53:28;23.80;1.00
8412;HTU21D;4243;49.296;11.348;2022-07-29T07:53:28;26.79;118.99
8412;HTU21D;4243;49.296;11.348;2022-07-29T07:55:56;26.71;118.99
8412;HTU21D;4243;49.296;11.348;2022-07-29T07:58:39;23.70;1.00
8412;HTU21D;4243;49.296;11.348;2022-07-29T07:58:39;26.72;118.99
8412;HTU21D;4243;49.296;11.348;2022-07-29T08:03:45;27.81;118.99
8412;HTU21D;4243;49.296;11.348;2022-07-29T08:06:13;28.82;118.99
8412;HTU21D;4243;49.296;11.348;2022-07-29T08:08:40;29.51;118.99
8412;HTU21D;4243;49.296;11.348;2022-07-29T08:11:09;30.62;118.99
8412;HTU21D;4243;49.296;11.348;2022-07-29T08:13:38;31.04;118.99
8412;HTU21D;4243;49.296;11.348;2022-07-29T08:16:06;25.20;1.00
8412;HTU21D;4243;49.296;11.348;2022-07-29T08:16:07;30.83;118.99
8412;HTU21D;4243;49.296;11.348;2022-07-29T08:18:44;24.60;1.00
8412;HTU21D;4243;49.296;11.348;2022-07-29T08:18:44;30.12;118.99
8412;HTU21D;4243;49.296;11.348;2022-07-29T08:21:13;29.70;118.99
8412;HTU21D;4243;49.296;11.348;2022-07-29T08:23:46;29.77;118.99
8412;HTU21D;4243;49.296;11.348;2022-07-29T08:26:28;30.68;118.99
8412;HTU21D;4243;49.296;11.348;2022-07-29T08:28:55;31.74;118.99
8412;HTU21D;4243;49.296;11.348;2022-07-29T08:31:23;32.92;118.99
8412;HTU21D;4243;49.296;11.348;2022-07-29T08:33:50;33.79;118.99
8412;HTU21D;4243;49.296;11.348;2022-07-29T08:36:17;27.30;1.00
8412;HTU21D;4243;49.296;11.348;2022-07-29T08:36:18;34.63;118.99
8412;HTU21D;4243;49.296;11.348;2022-07-29T08:38:47;35.84;118.99
8412;HTU21D;4243;49.296;11.348;2022-07-29T08:41:20;37.61;118.99
8412;HTU21D;4243;49.296;11.348;2022-07-29T08:43:50;37.75;118.99
8412;HTU21D;4243;49.296;11.348;2022-07-29T08:46:20;37.19;118.99
8412;HTU21D;4243;49.296;11.348;2022-07-29T08:48:48;36.11;118.99
8412;HTU21D;4243;49.296;11.348;2022-07-29T08:51:18;35.12;118.99
8412;HTU21D;4243;49.296;11.348;2022-07-29T08:53:47;27.10;1.00
8412;HTU21D;4243;49.296;11.348;2022-07-29T08:53:48;35.07;118.99
8412;HTU21D;4243;49.296;11.348;2022-07-29T08:56:18;35.86;118.99
8412;HTU21D;4243;49.296;11.348;2022-07-29T08:58:47;36.36;118.99
8412;HTU21D;4243;49.296;11.348;2022-07-29T08:58:47;28.30;1.00
8412;HTU21D;4243;49.296;11.348;2022-07-29T09:01:22;28.40;1.00
8412;HTU21D;4243;49.296;11.348;2022-07-29T09:01:23;37.11;118.99
8412;HTU21D;4243;49.296;11.348;2022-07-29T09:04:04;36.12;118.99
8412;HTU21D;4243;49.296;11.348;2022-07-29T09:06:37;27.20;1.00
8412;HTU21D;4243;49.296;11.348;2022-07-29T09:06:41;35.57;118.99
8412;HTU21D;4243;49.296;11.348;2022-07-29T09:09:11;35.89;118.99
8412;HTU21D;4243;49.296;11.348;2022-07-29T09:11:40;36.59;118.99
8412;HTU21D;4243;49.296;11.348;2022-07-29T09:14:08;27.80;1.00
8412;HTU21D;4243;49.296;11.348;2022-07-29T09:14:11;37.50;118.99
8412;HTU21D;4243;49.296;11.348;2022-07-29T09:16:49;37.73;118.99
8412;HTU21D;4243;49.296;11.348;2022-07-29T09:19:32;29.10;1.00
8412;HTU21D;4243;49.296;11.348;2022-07-29T09:19:36;39.00;118.99
8412;HTU21D;4243;49.296;11.348;2022-07-29T09:22:05;29.20;1.00
8412;HTU21D;4243;49.296;11.348;2022-07-29T09:22:06;39.87;118.99
8412;HTU21D;4243;49.296;11.348;2022-07-29T09:27:01;29.50;1.00
8412;HTU21D;4243;49.296;11.348;2022-07-29T09:27:01;38.96;118.99
8412;HTU21D;4243;49.296;11.348;2022-07-29T09:29:29;37.20;118.99
8412;HTU21D;4243;49.296;11.348;2022-07-29T09:32:06;28.80;1.00
8412;HTU21D;4243;49.296;11.348;2022-07-29T09:32:08;36.59;118.99
8412;HTU21D;4243;49.296;11.348;2022-07-29T09:34:37;36.38;118.99
8412;HTU21D;4243;49.296;11.348;2022-07-29T09:37:05;34.76;118.99
8412;HTU21D;4243;49.296;11.348;2022-07-29T09:39:36;34.08;118.99
8412;HTU21D;4243;49.296;11.348;2022-07-29T09:42:06;33.94;118.99
8412;HTU21D;4243;49.296;11.348;2022-07-29T09:44:52;35.19;118.99
8412;HTU21D;4243;49.296;11.348;2022-07-29T09:47:20;36.36;118.99
8412;HTU21D;4243;49.296;11.348;2022-07-29T09:49:58;38.06;118.99
8412;HTU21D;4243;49.296;11.348;2022-07-29T09:52:29;38.47;118.99
8412;HTU21D;4243;49.296;11.348;2022-07-29T09:55:06;30.70;1.00
8412;HTU21D;4243;49.296;11.348;2022-07-29T09:55:08;39.00;118.99
8412;HTU21D;4243;49.296;11.348;2022-07-29T09:57:45;39.21;118.99
8412;HTU21D;4243;49.296;11.348;2022-07-29T10:00:16;39.93;118.99
8412;HTU21D;4243;49.296;11.348;2022-07-29T10:02:46;31.10;1.00
8412;HTU21D;4243;49.296;11.348;2022-07-29T10:02:47;40.86;118.99
8412;HTU21D;4243;49.296;11.348;2022-07-29T10:05:23;41.54;118.99
8412;HTU21D;4243;49.296;11.348;2022-07-29T10:07:55;41.86;118.99
8412;HTU21D;4243;49.296;11.348;2022-07-29T10:10:37;42.61;118.99
8412;HTU21D;4243;49.296;11.348;2022-07-29T10:13:11;42.81;118.99
8412;HTU21D;4243;49.296;11.348;2022-07-29T10:15:44;43.44;118.99
8412;HTU21D;4243;49.296;11.348;2022-07-29T10:18:14;42.96;118.99
8412;HTU21D;4243;49.296;11.348;2022-07-29T10:20:44;41.65;118.99
8412;HTU21D;4243;49.296;11.348;2022-07-29T10:23:12;40.29;118.99
8412;HTU21D;4243;49.296;11.348;2022-07-29T10:25:42;39.07;118.99
8412;HTU21D;4243;49.296;11.348;2022-07-29T10:28:12;38.94;118.99
8412;HTU21D;4243;49.296;11.348;2022-07-29T10:30:43;31.70;1.00
8412;HTU21D;4243;49.296;11.348;2022-07-29T10:30:44;40.16;118.99
8412;HTU21D;4243;49.296;11.348;2022-07-29T10:33:54;40.69;118.99
8412;HTU21D;4243;49.296;11.348;2022-07-29T10:34:20;31.90;1.00
8412;HTU21D;4243;49.296;11.348;2022-07-29T10:36:51;40.30;118.99
8412;HTU21D;4243;49.296;11.348;2022-07-29T10:39:43;30.70;1.00
8412;HTU21D;4243;49.296;11.348;2022-07-29T10:42:53;41.50;118.99
8412;HTU21D;4243;49.296;11.348;2022-07-29T10:45:21;32.40;1.00
8412;HTU21D;4243;49.296;11.348;2022-07-29T10:45:21;42.03;118.99
8412;HTU21D;4243;49.296;11.348;2022-07-29T10:48:03;43.08;118.99
8412;HTU21D;4243;49.296;11.348;2022-07-29T10:50:59;43.32;118.99
8412;HTU21D;4243;49.296;11.348;2022-07-29T10:53:51;43.69;118.99
8412;HTU21D;4243;49.296;11.348;2022-07-29T10:56:31;44.25;118.99
8412;HTU21D;4243;49.296;11.348;2022-07-29T11:01:50;43.95;118.99
8412;HTU21D;4243;49.296;11.348;2022-07-29T11:07:13;44.85;118.99
8412;HTU21D;4243;49.296;11.348;2022-07-29T11:09:43;45.25;118.99
8412;HTU21D;4243;49.296;11.348;2022-07-29T11:15:16;45.96;118.99
8412;HTU21D;4243;49.296;11.348;2022-07-29T11:23:26;34.00;1.00
8412;HTU21D;4243;49.296;11.348;2022-07-29T11:23:28;44.07;118.99
8412;HTU21D;4243;49.296;11.348;2022-07-29T11:26:17;43.93;118.99
8412;HTU21D;4243;49.296;11.348;2022-07-29T11:29:02;41.71;118.99
8412;HTU21D;4243;49.296;11.348;2022-07-29T11:31:42;31.70;1.00
8412;HTU21D;4243;49.296;11.348;2022-07-29T11:31:43;39.27;118.99
8412;HTU21D;4243;49.296;11.348;2022-07-29T11:34:24;37.94;118.99
8412;HTU21D;4243;49.296;11.348;2022-07-29T11:45:23;35.40;118.99
8412;HTU21D;4243;49.296;11.348;2022-07-29T11:48:18;36.97;118.99
8412;HTU21D;4243;49.296;11.348;2022-07-29T11:50:58;38.62;118.99
8412;HTU21D;4243;49.296;11.348;2022-07-29T11:53:27;38.48;118.99
8412;HTU21D;4243;49.296;11.348;2022-07-29T11:55:59;38.61;118.99
8412;HTU21D;4243;49.296;11.348;2022-07-29T11:58:28;32.50;1.00
8412;HTU21D;4243;49.296;11.348;2022-07-29T11:58:29;39.72;118.99
8412;HTU21D;4243;49.296;11.348;2022-07-29T12:00:57;40.07;118.99
8412;HTU21D;4243;49.296;11.348;2022-07-29T12:03:31;38.91;118.99
8412;HTU21D;4243;49.296;11.348;2022-07-29T12:03:31;32.30;1.00
8412;HTU21D;4243;49.296;11.348;2022-07-29T12:06:10;32.00;1.00
8412;HTU21D;4243;49.296;11.348;2022-07-29T12:06:11;38.63;118.99
8412;HTU21D;4243;49.296;11.348;2022-07-29T12:08:42;38.45;118.99
8412;HTU21D;4243;49.296;11.348;2022-07-29T12:11:18;38.22;118.99
8412;HTU21D;4243;49.296;11.348;2022-07-29T12:13:48;37.06;118.99
8412;HTU21D;4243;49.296;11.348;2022-07-29T12:16:20;36.77;118.99
8412;HTU21D;4243;49.296;11.348;2022-07-29T12:19:00;36.39;118.99
8412;HTU21D;4243;49.296;11.348;2022-07-29T12:24:24;34.79;118.99
8412;HTU21D;4243;49.296;11.348;2022-07-29T12:29:22;31.35;118.99
8412;HTU21D;4243;49.296;11.348;2022-07-29T12:32:02;30.11;118.99
8412;HTU21D;4243;49.296;11.348;2022-07-29T12:34:45;29.23;118.99
8412;HTU21D;4243;49.296;11.348;2022-07-29T12:37:13;28.83;118.99
8412;HTU21D;4243;49.296;11.348;2022-07-29T12:39:41;28.70;118.99
8412;HTU21D;4243;49.296;11.348;2022-07-29T12:42:13;28.83;118.99
8412;HTU21D;4243;49.296;11.348;2022-07-29T12:44:49;28.12;118.99
8412;HTU21D;4243;49.296;11.348;2022-07-29T12:47:18;27.58;118.99
8412;HTU21D;4243;49.296;11.348;2022-07-29T12:49:47;27.32;118.99
8412;HTU21D;4243;49.296;11.348;2022-07-29T12:52:28;27.54;118.99
8412;HTU21D;4243;49.296;11.348;2022-07-29T12:54:58;28.02;118.99
8412;HTU21D;4243;49.296;11.348;2022-07-29T12:57:26;27.52;118.99
8412;HTU21D;4243;49.296;11.348;2022-07-29T13:00:07;27.10;118.99
8412;HTU21D;4243;49.296;11.348;2022-07-29T13:02:41;26.65;118.99
8412;HTU21D;4243;49.296;11.348;2022-07-29T13:02:41;25.40;1.00
8412;HTU21D;4243;49.296;11.348;2022-07-29T13:05:11;25.20;1.00
8412;HTU21D;4243;49.296;11.348;2022-07-29T13:05:11;26.27;118.99
8412;HTU21D;4243;49.296;11.348;2022-07-29T13:07:40;25.77;118.99
8412;HTU21D;4243;49.296;11.348;2022-07-29T13:10:23;25.59;118.99
8412;HTU21D;4243;49.296;11.348;2022-07-29T13:10:23;24.70;1.00
8412;HTU21D;4243;49.296;11.348;2022-07-29T13:13:11;24.50;1.00
8412;HTU21D;4243;49.296;11.348;2022-07-29T13:13:13;25.35;118.99
8412;HTU21D;4243;49.296;11.348;2022-07-29T13:15:45;25.02;118.99
8412;HTU21D;4243;49.296;11.348;2022-07-29T13:18:33;24.77;118.99
8412;HTU21D;4243;49.296;11.348;2022-07-29T13:21:13;24.74;118.99
8412;HTU21D;4243;49.296;11.348;2022-07-29T13:23:41;24.89;118.99
8412;HTU21D;4243;49.296;11.348;2022-07-29T13:26:11;25.09;118.99
8412;HTU21D;4243;49.296;11.348;2022-07-29T13:28:42;25.15;118.99
8412;HTU21D;4243;49.296;11.348;2022-07-29T13:31:10;25.10;118.99
8412;HTU21D;4243;49.296;11.348;2022-07-29T13:33:38;25.09;118.99
8412;HTU21D;4243;49.296;11.348;2022-07-29T13:36:06;25.06;118.99